sensor_id;sensor_type;location;lat;lon;timestamp;temperature;humidity
21481;DHT22;10902;48.158;8.634;2024-01-30T00:02:24;1.30;99.90
21481;DHT22;10902;48.158;8.634;2024-01-30T00:05:09;1.30;99.90
21481;DHT22;10902;48.158;8.634;2024-01-30T00:07:55;1.10;99.90
21481;DHT22;10902;48.158;8.634;2024-01-30T00:10:41;1.10;99.90
21481;DHT22;10902;48.158;8.634;2024-01-30T00:13:27;1.10;99.90
21481;DHT22;10902;48.158;8.634;2024-01-30T00:16:25;1.00;99.90
21481;DHT22;10902;48.158;8.634;2024-01-30T00:19:11;1.10;99.90
21481;DHT22;10902;48.158;8.634;2024-01-30T00:21:56;1.10;99.90
21481;DHT22;10902;48.158;8.634;2024-01-30T00:24:42;0.90;99.90
21481;DHT22;10902;48.158;8.634;2024-01-30T00:27:27;1.10;99.90
21481;DHT22;10902;48.158;8.634;2024-01-30T00:30:13;0.90;99.90
21481;DHT22;10902;48.158;8.634;2024-01-30T00:32:59;1.00;99.90
21481;DHT22;10902;48.158;8.634;2024-01-30T00:35:45;0.80;99.90
21481;DHT22;10902;48.158;8.634;2024-01-30T00:38:30;0.90;99.90
21481;DHT22;10902;48.158;8.634;2024-01-30T00:41:17;0.80;99.90
21481;DHT22;10902;48.158;8.634;2024-01-30T00:44:03;0.80;99.90
21481;DHT22;10902;48.158;8.634;2024-01-30T00:46:49;0.60;99.90
21481;DHT22;10902;48.158;8.634;2024-01-30T00:49:34;0.60;99.90
21481;DHT22;10902;48.158;8.634;2024-01-30T00:52:20;0.60;99.90
21481;DHT22;10902;48.158;8.634;2024-01-30T00:55:06;0.70;99.90
21481;DHT22;10902;48.158;8.634;2024-01-30T00:57:52;0.70;99.90
21481;DHT22;10902;48.158;8.634;2024-01-30T01:00:37;0.80;99.90
21481;DHT22;10902;48.158;8.634;2024-01-30T01:03:23;0.80;99.90
21481;DHT22;10902;48.158;8.634;2024-01-30T01:06:08;0.70;99.90
21481;DHT22;10902;48.158;8.634;2024-01-30T01:08:54;0.80;99.90
21481;DHT22;10902;48.158;8.634;2024-01-30T01:11:39;0.70;99.90
21481;DHT22;10902;48.158;8.634;2024-01-30T01:14:25;0.80;99.90
21481;DHT22;10902;48.158;8.634;2024-01-30T01:17:10;1.00;99.90
21481;DHT22;10902;48.158;8.634;2024-01-30T01:19:56;1.00;99.90
21481;DHT22;10902;48.158;8.634;2024-01-30T01:22:42;1.10;99.90
21481;DHT22;10902;48.158;8.634;2024-01-30T01:25:27;1.10;99.90
21481;DHT22;10902;48.158;8.634;2024-01-30T01:28:13;1.10;99.90
21481;DHT22;10902;48.158;8.634;2024-01-30T01:31:00;1.30;99.90
21481;DHT22;10902;48.158;8.634;2024-01-30T01:33:50;1.40;99.90
21481;DHT22;10902;48.158;8.634;2024-01-30T01:36:36;1.40;99.90
21481;DHT22;10902;48.158;8.634;2024-01-30T01:39:22;1.30;99.90
21481;DHT22;10902;48.158;8.634;2024-01-30T01:42:11;1.30;99.90
21481;DHT22;10902;48.158;8.634;2024-01-30T01:44:56;1.50;99.90
21481;DHT22;10902;48.158;8.634;2024-01-30T01:47:42;1.60;99.90
21481;DHT22;10902;48.158;8.634;2024-01-30T01:50:28;1.60;99.90
21481;DHT22;10902;48.158;8.634;2024-01-30T01:53:15;1.60;99.90
21481;DHT22;10902;48.158;8.634;2024-01-30T01:56:01;1.60;99.90
21481;DHT22;10902;48.158;8.634;2024-01-30T01:58:47;1.60;99.90
21481;DHT22;10902;48.158;8.634;2024-01-30T02:01:38;1.50;99.90
21481;DHT22;10902;48.158;8.634;2024-01-30T02:04:26;1.40;99.90
21481;DHT22;10902;48.158;8.634;2024-01-30T02:07:11;1.30;99.90
21481;DHT22;10902;48.158;8.634;2024-01-30T02:09:57;1.10;99.90
21481;DHT22;10902;48.158;8.634;2024-01-30T02:12:43;1.20;99.90
21481;DHT22;10902;48.158;8.634;2024-01-30T02:15:28;1.30;99.90
21481;DHT22;10902;48.158;8.634;2024-01-30T02:18:14;1.20;99.90
21481;DHT22;10902;48.158;8.634;2024-01-30T02:21:04;1.20;99.90
21481;DHT22;10902;48.158;8.634;2024-01-30T02:23:50;1.20;99.90
21481;DHT22;10902;48.158;8.634;2024-01-30T02:26:37;1.20;99.90
21481;DHT22;10902;48.158;8.634;2024-01-30T02:29:22;1.20;99.90
21481;DHT22;10902;48.158;8.634;2024-01-30T02:32:08;1.20;99.90
21481;DHT22;10902;48.158;8.634;2024-01-30T02:34:53;1.20;99.90
21481;DHT22;10902;48.158;8.634;2024-01-30T02:37:39;1.30;99.90
21481;DHT22;10902;48.158;8.634;2024-01-30T02:40:24;1.30;99.90
21481;DHT22;10902;48.158;8.634;2024-01-30T02:43:10;1.20;99.90
21481;DHT22;10902;48.158;8.634;2024-01-30T02:45:55;1.20;99.90
21481;DHT22;10902;48.158;8.634;2024-01-30T02:48:41;1.20;99.90
21481;DHT22;10902;48.158;8.634;2024-01-30T02:51:27;1.20;99.90
21481;DHT22;10902;48.158;8.634;2024-01-30T02:54:12;1.40;99.90
21481;DHT22;10902;48.158;8.634;2024-01-30T02:56:58;1.40;99.90
21481;DHT22;10902;48.158;8.634;2024-01-30T02:59:43;1.50;99.90
21481;DHT22;10902;48.158;8.634;2024-01-30T03:02:29;1.50;99.90
21481;DHT22;10902;48.158;8.634;2024-01-30T03:05:14;1.60;99.90
21481;DHT22;10902;48.158;8.634;2024-01-30T03:08:00;1.60;99.90
21481;DHT22;10902;48.158;8.634;2024-01-30T03:10:46;1.60;99.90
21481;DHT22;10902;48.158;8.634;2024-01-30T03:13:31;1.60;99.90
21481;DHT22;10902;48.158;8.634;2024-01-30T03:16:17;1.60;99.90
21481;DHT22;10902;48.158;8.634;2024-01-30T03:19:02;1.50;99.90
21481;DHT22;10902;48.158;8.634;2024-01-30T03:21:49;1.50;99.90
21481;DHT22;10902;48.158;8.634;2024-01-30T03:24:35;1.40;99.90
21481;DHT22;10902;48.158;8.634;2024-01-30T03:27:20;1.30;99.90
21481;DHT22;10902;48.158;8.634;2024-01-30T03:30:06;1.30;99.90
21481;DHT22;10902;48.158;8.634;2024-01-30T03:32:52;1.30;99.90
21481;DHT22;10902;48.158;8.634;2024-01-30T03:35:38;1.40;99.90
21481;DHT22;10902;48.158;8.634;2024-01-30T03:38:23;1.50;99.90
21481;DHT22;10902;48.158;8.634;2024-01-30T03:41:09;1.30;99.90
21481;DHT22;10902;48.158;8.634;2024-01-30T03:43:56;1.50;99.90
21481;DHT22;10902;48.158;8.634;2024-01-30T03:46:42;1.50;99.90
21481;DHT22;10902;48.158;8.634;2024-01-30T03:49:27;1.60;99.90
21481;DHT22;10902;48.158;8.634;2024-01-30T03:52:13;1.60;99.90
21481;DHT22;10902;48.158;8.634;2024-01-30T03:54:58;1.60;99.90
21481;DHT22;10902;48.158;8.634;2024-01-30T03:57:44;1.50;99.90
21481;DHT22;10902;48.158;8.634;2024-01-30T04:00:30;1.30;99.90
21481;DHT22;10902;48.158;8.634;2024-01-30T04:03:15;1.30;99.90
21481;DHT22;10902;48.158;8.634;2024-01-30T04:06:01;1.40;99.90
21481;DHT22;10902;48.158;8.634;2024-01-30T04:08:46;1.20;99.90
21481;DHT22;10902;48.158;8.634;2024-01-30T04:11:32;1.10;99.90
21481;DHT22;10902;48.158;8.634;2024-01-30T04:14:18;1.10;99.90
21481;DHT22;10902;48.158;8.634;2024-01-30T04:17:03;1.20;99.90
21481;DHT22;10902;48.158;8.634;2024-01-30T04:19:49;1.00;99.90
21481;DHT22;10902;48.158;8.634;2024-01-30T04:22:34;0.90;99.90
21481;DHT22;10902;48.158;8.634;2024-01-30T04:25:20;0.80;99.90
21481;DHT22;10902;48.158;8.634;2024-01-30T04:28:06;0.90;99.90
21481;DHT22;10902;48.158;8.634;2024-01-30T04:30:51;0.80;99.90
21481;DHT22;10902;48.158;8.634;2024-01-30T04:33:37;0.80;99.90
21481;DHT22;10902;48.158;8.634;2024-01-30T04:36:23;0.80;99.90
21481;DHT22;10902;48.158;8.634;2024-01-30T04:39:08;0.70;99.90
21481;DHT22;10902;48.158;8.634;2024-01-30T04:41:54;0.80;99.90
21481;DHT22;10902;48.158;8.634;2024-01-30T04:44:39;0.80;99.90
21481;DHT22;10902;48.158;8.634;2024-01-30T04:47:25;0.80;99.90
21481;DHT22;10902;48.158;8.634;2024-01-30T04:50:10;0.80;99.90
21481;DHT22;10902;48.158;8.634;2024-01-30T04:52:56;1.00;99.90
21481;DHT22;10902;48.158;8.634;2024-01-30T04:55:42;1.00;99.90
21481;DHT22;10902;48.158;8.634;2024-01-30T04:58:27;1.20;99.90
21481;DHT22;10902;48.158;8.634;2024-01-30T05:01:16;1.30;99.90
21481;DHT22;10902;48.158;8.634;2024-01-30T05:04:02;1.30;99.90
21481;DHT22;10902;48.158;8.634;2024-01-30T05:06:48;1.10;99.90
21481;DHT22;10902;48.158;8.634;2024-01-30T05:09:34;0.80;99.90
21481;DHT22;10902;48.158;8.634;2024-01-30T05:12:20;0.60;99.90
21481;DHT22;10902;48.158;8.634;2024-01-30T05:15:06;0.50;99.90
21481;DHT22;10902;48.158;8.634;2024-01-30T05:17:51;0.40;99.90
21481;DHT22;10902;48.158;8.634;2024-01-30T05:20:37;0.40;99.90
21481;DHT22;10902;48.158;8.634;2024-01-30T05:23:23;0.40;99.90
21481;DHT22;10902;48.158;8.634;2024-01-30T05:26:08;0.50;99.90
21481;DHT22;10902;48.158;8.634;2024-01-30T05:28:54;0.60;99.90
21481;DHT22;10902;48.158;8.634;2024-01-30T05:31:39;0.80;99.90
21481;DHT22;10902;48.158;8.634;2024-01-30T05:34:25;0.80;99.90
21481;DHT22;10902;48.158;8.634;2024-01-30T05:37:10;0.80;99.90
21481;DHT22;10902;48.158;8.634;2024-01-30T05:39:59;0.70;99.90
21481;DHT22;10902;48.158;8.634;2024-01-30T05:42:45;0.70;99.90
21481;DHT22;10902;48.158;8.634;2024-01-30T05:45:31;0.70;99.90
21481;DHT22;10902;48.158;8.634;2024-01-30T05:48:16;0.80;99.90
21481;DHT22;10902;48.158;8.634;2024-01-30T05:51:02;0.90;99.90
21481;DHT22;10902;48.158;8.634;2024-01-30T05:53:49;0.90;99.90
21481;DHT22;10902;48.158;8.634;2024-01-30T05:56:34;0.80;99.90
21481;DHT22;10902;48.158;8.634;2024-01-30T05:59:20;0.70;99.90
21481;DHT22;10902;48.158;8.634;2024-01-30T06:02:05;0.80;99.90
21481;DHT22;10902;48.158;8.634;2024-01-30T06:04:51;0.70;99.90
21481;DHT22;10902;48.158;8.634;2024-01-30T06:07:37;0.60;99.90
21481;DHT22;10902;48.158;8.634;2024-01-30T06:10:23;0.60;99.90
21481;DHT22;10902;48.158;8.634;2024-01-30T06:13:08;0.50;99.90
21481;DHT22;10902;48.158;8.634;2024-01-30T06:15:54;0.70;99.90
21481;DHT22;10902;48.158;8.634;2024-01-30T06:18:39;0.80;99.90
21481;DHT22;10902;48.158;8.634;2024-01-30T06:21:25;0.90;99.90
21481;DHT22;10902;48.158;8.634;2024-01-30T06:24:10;0.90;99.90
21481;DHT22;10902;48.158;8.634;2024-01-30T06:26:56;1.00;99.90
21481;DHT22;10902;48.158;8.634;2024-01-30T06:29:43;1.00;99.90
21481;DHT22;10902;48.158;8.634;2024-01-30T06:32:28;1.00;99.90
21481;DHT22;10902;48.158;8.634;2024-01-30T06:35:14;0.90;99.90
21481;DHT22;10902;48.158;8.634;2024-01-30T06:38:00;0.90;99.90
21481;DHT22;10902;48.158;8.634;2024-01-30T06:40:45;0.90;99.90
21481;DHT22;10902;48.158;8.634;2024-01-30T06:43:31;0.80;99.90
21481;DHT22;10902;48.158;8.634;2024-01-30T06:46:16;0.70;99.90
21481;DHT22;10902;48.158;8.634;2024-01-30T06:49:02;0.70;99.90
21481;DHT22;10902;48.158;8.634;2024-01-30T06:51:48;0.70;99.90
21481;DHT22;10902;48.158;8.634;2024-01-30T06:54:34;0.70;99.90
21481;DHT22;10902;48.158;8.634;2024-01-30T06:57:19;0.60;99.90
21481;DHT22;10902;48.158;8.634;2024-01-30T07:00:06;0.50;99.90
21481;DHT22;10902;48.158;8.634;2024-01-30T07:02:52;0.50;99.90
21481;DHT22;10902;48.158;8.634;2024-01-30T07:05:37;0.50;99.90
21481;DHT22;10902;48.158;8.634;2024-01-30T07:08:23;0.70;99.90
21481;DHT22;10902;48.158;8.634;2024-01-30T07:11:08;0.70;99.90
21481;DHT22;10902;48.158;8.634;2024-01-30T07:13:54;0.70;99.90
21481;DHT22;10902;48.158;8.634;2024-01-30T07:16:40;0.70;99.90
21481;DHT22;10902;48.158;8.634;2024-01-30T07:19:25;0.80;99.90
21481;DHT22;10902;48.158;8.634;2024-01-30T07:22:11;1.10;99.90
21481;DHT22;10902;48.158;8.634;2024-01-30T07:24:57;1.20;99.90
21481;DHT22;10902;48.158;8.634;2024-01-30T07:27:42;1.20;99.90
21481;DHT22;10902;48.158;8.634;2024-01-30T07:30:28;1.20;99.90
21481;DHT22;10902;48.158;8.634;2024-01-30T07:33:14;1.10;99.90
21481;DHT22;10902;48.158;8.634;2024-01-30T07:35:59;1.00;99.90
21481;DHT22;10902;48.158;8.634;2024-01-30T07:38:45;0.80;99.90
21481;DHT22;10902;48.158;8.634;2024-01-30T07:41:30;0.80;99.90
21481;DHT22;10902;48.158;8.634;2024-01-30T07:44:17;0.90;99.90
21481;DHT22;10902;48.158;8.634;2024-01-30T07:47:02;0.90;99.90
21481;DHT22;10902;48.158;8.634;2024-01-30T07:49:48;1.10;99.90
21481;DHT22;10902;48.158;8.634;2024-01-30T07:52:34;1.10;99.90
21481;DHT22;10902;48.158;8.634;2024-01-30T07:55:19;1.00;99.90
21481;DHT22;10902;48.158;8.634;2024-01-30T07:58:06;1.10;99.90
21481;DHT22;10902;48.158;8.634;2024-01-30T08:00:51;1.00;99.90
21481;DHT22;10902;48.158;8.634;2024-01-30T08:03:38;1.10;99.90
21481;DHT22;10902;48.158;8.634;2024-01-30T08:06:26;1.20;99.90
21481;DHT22;10902;48.158;8.634;2024-01-30T08:09:12;1.20;99.90
21481;DHT22;10902;48.158;8.634;2024-01-30T08:11:57;1.10;99.90
21481;DHT22;10902;48.158;8.634;2024-01-30T08:14:43;1.10;99.90
21481;DHT22;10902;48.158;8.634;2024-01-30T08:17:29;1.00;99.90
21481;DHT22;10902;48.158;8.634;2024-01-30T08:20:14;1.20;99.90
21481;DHT22;10902;48.158;8.634;2024-01-30T08:23:00;1.20;99.90
21481;DHT22;10902;48.158;8.634;2024-01-30T08:25:46;1.30;99.90
21481;DHT22;10902;48.158;8.634;2024-01-30T08:28:31;1.40;99.90
21481;DHT22;10902;48.158;8.634;2024-01-30T08:31:17;1.40;99.90
21481;DHT22;10902;48.158;8.634;2024-01-30T08:34:02;1.50;99.90
21481;DHT22;10902;48.158;8.634;2024-01-30T08:36:48;1.60;99.90
21481;DHT22;10902;48.158;8.634;2024-01-30T08:39:34;1.70;99.90
21481;DHT22;10902;48.158;8.634;2024-01-30T08:42:19;1.80;99.90
21481;DHT22;10902;48.158;8.634;2024-01-30T08:45:08;1.90;99.90
21481;DHT22;10902;48.158;8.634;2024-01-30T08:47:54;2.00;99.90
21481;DHT22;10902;48.158;8.634;2024-01-30T08:50:40;2.20;99.90
21481;DHT22;10902;48.158;8.634;2024-01-30T08:53:25;2.30;99.90
21481;DHT22;10902;48.158;8.634;2024-01-30T08:56:11;2.60;99.90
21481;DHT22;10902;48.158;8.634;2024-01-30T08:58:57;2.80;99.90
21481;DHT22;10902;48.158;8.634;2024-01-30T09:01:42;3.00;99.90
21481;DHT22;10902;48.158;8.634;2024-01-30T09:04:28;3.20;99.90
21481;DHT22;10902;48.158;8.634;2024-01-30T09:07:14;3.40;99.90
21481;DHT22;10902;48.158;8.634;2024-01-30T09:09:59;3.60;99.90
21481;DHT22;10902;48.158;8.634;2024-01-30T09:12:45;3.90;99.90
21481;DHT22;10902;48.158;8.634;2024-01-30T09:15:30;4.10;99.90
21481;DHT22;10902;48.158;8.634;2024-01-30T09:18:16;4.30;99.90
21481;DHT22;10902;48.158;8.634;2024-01-30T09:21:01;4.30;99.90
21481;DHT22;10902;48.158;8.634;2024-01-30T09:23:47;4.60;99.90
21481;DHT22;10902;48.158;8.634;2024-01-30T09:26:33;5.00;99.90
21481;DHT22;10902;48.158;8.634;2024-01-30T09:29:18;5.40;99.90
21481;DHT22;10902;48.158;8.634;2024-01-30T09:32:04;5.50;99.90
21481;DHT22;10902;48.158;8.634;2024-01-30T09:34:51;5.50;99.90
21481;DHT22;10902;48.158;8.634;2024-01-30T09:37:37;5.40;99.90
21481;DHT22;10902;48.158;8.634;2024-01-30T09:40:22;5.30;99.90
21481;DHT22;10902;48.158;8.634;2024-01-30T09:43:09;5.20;99.90
21481;DHT22;10902;48.158;8.634;2024-01-30T09:46:00;5.00;99.90
21481;DHT22;10902;48.158;8.634;2024-01-30T09:48:47;5.10;99.90
21481;DHT22;10902;48.158;8.634;2024-01-30T09:51:34;5.10;99.90
21481;DHT22;10902;48.158;8.634;2024-01-30T09:54:20;5.20;99.90
21481;DHT22;10902;48.158;8.634;2024-01-30T09:57:07;5.30;99.90
21481;DHT22;10902;48.158;8.634;2024-01-30T09:59:53;5.40;99.90
21481;DHT22;10902;48.158;8.634;2024-01-30T10:02:42;5.50;99.90
21481;DHT22;10902;48.158;8.634;2024-01-30T10:05:27;5.80;99.90
21481;DHT22;10902;48.158;8.634;2024-01-30T10:08:16;6.00;99.90
21481;DHT22;10902;48.158;8.634;2024-01-30T10:11:04;6.20;99.90
21481;DHT22;10902;48.158;8.634;2024-01-30T10:13:50;6.30;99.90
21481;DHT22;10902;48.158;8.634;2024-01-30T10:16:35;6.40;99.90
21481;DHT22;10902;48.158;8.634;2024-01-30T10:19:21;6.60;99.90
21481;DHT22;10902;48.158;8.634;2024-01-30T10:22:07;6.70;99.90
21481;DHT22;10902;48.158;8.634;2024-01-30T10:24:53;6.80;99.90
21481;DHT22;10902;48.158;8.634;2024-01-30T10:27:42;6.90;99.90
21481;DHT22;10902;48.158;8.634;2024-01-30T10:30:27;7.40;99.90
21481;DHT22;10902;48.158;8.634;2024-01-30T10:33:13;8.20;99.90
21481;DHT22;10902;48.158;8.634;2024-01-30T10:36:03;8.90;99.90
21481;DHT22;10902;48.158;8.634;2024-01-30T10:38:51;9.00;99.90
21481;DHT22;10902;48.158;8.634;2024-01-30T10:41:45;9.50;99.90
21481;DHT22;10902;48.158;8.634;2024-01-30T10:44:48;10.50;99.90
21481;DHT22;10902;48.158;8.634;2024-01-30T10:47:40;11.90;99.90
21481;DHT22;10902;48.158;8.634;2024-01-30T10:50:26;12.50;99.90
21481;DHT22;10902;48.158;8.634;2024-01-30T10:53:13;13.00;99.90
21481;DHT22;10902;48.158;8.634;2024-01-30T10:56:00;12.50;99.90
21481;DHT22;10902;48.158;8.634;2024-01-30T10:58:47;11.60;99.90
21481;DHT22;10902;48.158;8.634;2024-01-30T11:01:35;11.70;99.90
21481;DHT22;10902;48.158;8.634;2024-01-30T11:04:20;11.00;99.90
21481;DHT22;10902;48.158;8.634;2024-01-30T11:07:16;10.50;99.90
21481;DHT22;10902;48.158;8.634;2024-01-30T11:10:04;9.90;99.90
21481;DHT22;10902;48.158;8.634;2024-01-30T11:12:50;9.70;99.90
21481;DHT22;10902;48.158;8.634;2024-01-30T11:15:37;9.70;99.90
21481;DHT22;10902;48.158;8.634;2024-01-30T11:18:26;9.50;99.90
21481;DHT22;10902;48.158;8.634;2024-01-30T11:21:14;9.40;99.90
21481;DHT22;10902;48.158;8.634;2024-01-30T11:24:02;9.40;99.90
21481;DHT22;10902;48.158;8.634;2024-01-30T11:27:01;9.50;99.90
21481;DHT22;10902;48.158;8.634;2024-01-30T11:29:50;9.50;99.90
21481;DHT22;10902;48.158;8.634;2024-01-30T11:32:37;9.60;99.90
21481;DHT22;10902;48.158;8.634;2024-01-30T11:35:24;9.60;99.90
21481;DHT22;10902;48.158;8.634;2024-01-30T11:38:14;9.50;99.90
21481;DHT22;10902;48.158;8.634;2024-01-30T11:41:00;9.40;99.90
21481;DHT22;10902;48.158;8.634;2024-01-30T11:43:53;9.70;99.90
21481;DHT22;10902;48.158;8.634;2024-01-30T11:46:39;10.10;99.90
21481;DHT22;10902;48.158;8.634;2024-01-30T11:49:24;10.30;99.90
21481;DHT22;10902;48.158;8.634;2024-01-30T11:52:10;10.30;99.90
21481;DHT22;10902;48.158;8.634;2024-01-30T11:54:56;10.50;99.90
21481;DHT22;10902;48.158;8.634;2024-01-30T11:57:42;10.40;99.90
21481;DHT22;10902;48.158;8.634;2024-01-30T12:00:29;10.40;99.90
21481;DHT22;10902;48.158;8.634;2024-01-30T12:03:16;10.80;99.90
21481;DHT22;10902;48.158;8.634;2024-01-30T12:06:03;10.90;99.90
21481;DHT22;10902;48.158;8.634;2024-01-30T12:08:58;10.40;99.90
21481;DHT22;10902;48.158;8.634;2024-01-30T12:11:45;10.90;99.90
21481;DHT22;10902;48.158;8.634;2024-01-30T12:14:31;10.80;99.90
21481;DHT22;10902;48.158;8.634;2024-01-30T12:17:28;10.90;99.90
21481;DHT22;10902;48.158;8.634;2024-01-30T12:20:17;10.90;99.90
21481;DHT22;10902;48.158;8.634;2024-01-30T12:23:03;11.00;99.90
21481;DHT22;10902;48.158;8.634;2024-01-30T12:25:49;10.40;99.90
21481;DHT22;10902;48.158;8.634;2024-01-30T12:28:35;10.30;99.90
21481;DHT22;10902;48.158;8.634;2024-01-30T12:31:28;10.30;99.90
21481;DHT22;10902;48.158;8.634;2024-01-30T12:34:14;10.10;99.90
21481;DHT22;10902;48.158;8.634;2024-01-30T12:37:02;10.10;99.90
21481;DHT22;10902;48.158;8.634;2024-01-30T12:39:48;10.00;99.90
21481;DHT22;10902;48.158;8.634;2024-01-30T12:42:33;10.20;99.90
21481;DHT22;10902;48.158;8.634;2024-01-30T12:45:19;10.20;99.90
21481;DHT22;10902;48.158;8.634;2024-01-30T12:48:07;10.60;99.90
21481;DHT22;10902;48.158;8.634;2024-01-30T12:50:52;10.80;99.90
21481;DHT22;10902;48.158;8.634;2024-01-30T12:53:38;11.20;99.90
21481;DHT22;10902;48.158;8.634;2024-01-30T12:56:23;11.00;99.90
21481;DHT22;10902;48.158;8.634;2024-01-30T12:59:09;11.10;99.90
21481;DHT22;10902;48.158;8.634;2024-01-30T13:01:55;11.10;99.90
21481;DHT22;10902;48.158;8.634;2024-01-30T13:04:40;11.50;99.90
21481;DHT22;10902;48.158;8.634;2024-01-30T13:07:26;12.10;99.90
21481;DHT22;10902;48.158;8.634;2024-01-30T13:10:11;13.30;99.90
21481;DHT22;10902;48.158;8.634;2024-01-30T13:12:57;14.20;99.90
21481;DHT22;10902;48.158;8.634;2024-01-30T13:15:43;14.20;99.90
21481;DHT22;10902;48.158;8.634;2024-01-30T13:18:28;13.70;99.90
21481;DHT22;10902;48.158;8.634;2024-01-30T13:21:14;12.80;99.90
21481;DHT22;10902;48.158;8.634;2024-01-30T13:23:59;13.20;99.90
21481;DHT22;10902;48.158;8.634;2024-01-30T13:26:45;12.60;99.90
21481;DHT22;10902;48.158;8.634;2024-01-30T13:29:30;12.30;99.90
21481;DHT22;10902;48.158;8.634;2024-01-30T13:32:16;12.20;99.90
21481;DHT22;10902;48.158;8.634;2024-01-30T13:35:02;11.90;99.90
21481;DHT22;10902;48.158;8.634;2024-01-30T13:37:48;12.10;99.90
21481;DHT22;10902;48.158;8.634;2024-01-30T13:40:34;12.90;99.90
21481;DHT22;10902;48.158;8.634;2024-01-30T13:43:19;12.90;99.90
21481;DHT22;10902;48.158;8.634;2024-01-30T13:46:05;12.50;99.90
21481;DHT22;10902;48.158;8.634;2024-01-30T13:48:51;12.10;99.90
21481;DHT22;10902;48.158;8.634;2024-01-30T13:51:36;11.60;99.90
21481;DHT22;10902;48.158;8.634;2024-01-30T13:54:22;11.80;99.90
21481;DHT22;10902;48.158;8.634;2024-01-30T13:57:08;11.90;99.90
21481;DHT22;10902;48.158;8.634;2024-01-30T13:59:54;12.10;99.90
21481;DHT22;10902;48.158;8.634;2024-01-30T14:02:39;13.00;99.90
21481;DHT22;10902;48.158;8.634;2024-01-30T14:05:25;13.20;99.90
21481;DHT22;10902;48.158;8.634;2024-01-30T14:08:11;13.50;99.90
21481;DHT22;10902;48.158;8.634;2024-01-30T14:10:57;13.60;99.90
21481;DHT22;10902;48.158;8.634;2024-01-30T14:13:44;13.00;99.90
21481;DHT22;10902;48.158;8.634;2024-01-30T14:16:30;12.10;99.90
21481;DHT22;10902;48.158;8.634;2024-01-30T14:19:15;12.30;99.90
21481;DHT22;10902;48.158;8.634;2024-01-30T14:22:01;12.10;99.90
21481;DHT22;10902;48.158;8.634;2024-01-30T14:24:47;12.00;99.90
21481;DHT22;10902;48.158;8.634;2024-01-30T14:27:32;11.80;99.90
21481;DHT22;10902;48.158;8.634;2024-01-30T14:30:18;11.80;99.90
21481;DHT22;10902;48.158;8.634;2024-01-30T14:33:04;11.50;99.90
21481;DHT22;10902;48.158;8.634;2024-01-30T14:35:50;11.50;99.90
21481;DHT22;10902;48.158;8.634;2024-01-30T14:38:36;11.20;99.90
21481;DHT22;10902;48.158;8.634;2024-01-30T14:41:21;11.00;99.90
21481;DHT22;10902;48.158;8.634;2024-01-30T14:44:07;10.80;99.90
21481;DHT22;10902;48.158;8.634;2024-01-30T14:46:53;10.70;99.90
21481;DHT22;10902;48.158;8.634;2024-01-30T14:49:40;10.60;99.90
21481;DHT22;10902;48.158;8.634;2024-01-30T14:52:25;10.60;99.90
21481;DHT22;10902;48.158;8.634;2024-01-30T14:55:11;10.60;99.90
21481;DHT22;10902;48.158;8.634;2024-01-30T14:57:57;10.50;99.90
21481;DHT22;10902;48.158;8.634;2024-01-30T15:00:44;10.40;99.90
21481;DHT22;10902;48.158;8.634;2024-01-30T15:03:30;10.30;99.90
21481;DHT22;10902;48.158;8.634;2024-01-30T15:06:15;10.30;99.90
21481;DHT22;10902;48.158;8.634;2024-01-30T15:09:02;10.30;99.90
21481;DHT22;10902;48.158;8.634;2024-01-30T15:11:48;10.30;99.90
21481;DHT22;10902;48.158;8.634;2024-01-30T15:14:34;10.30;99.90
21481;DHT22;10902;48.158;8.634;2024-01-30T15:17:20;10.20;99.90
21481;DHT22;10902;48.158;8.634;2024-01-30T15:20:09;10.10;99.90
21481;DHT22;10902;48.158;8.634;2024-01-30T15:22:54;10.10;99.90
21481;DHT22;10902;48.158;8.634;2024-01-30T15:25:40;10.00;99.90
21481;DHT22;10902;48.158;8.634;2024-01-30T15:28:39;9.90;99.90
21481;DHT22;10902;48.158;8.634;2024-01-30T15:31:24;9.80;99.90
21481;DHT22;10902;48.158;8.634;2024-01-30T15:34:10;9.70;99.90
21481;DHT22;10902;48.158;8.634;2024-01-30T15:36:55;9.70;99.90
21481;DHT22;10902;48.158;8.634;2024-01-30T15:39:41;9.60;99.90
21481;DHT22;10902;48.158;8.634;2024-01-30T15:42:27;9.60;99.90
21481;DHT22;10902;48.158;8.634;2024-01-30T15:45:12;9.50;99.90
21481;DHT22;10902;48.158;8.634;2024-01-30T15:47:58;9.50;99.90
21481;DHT22;10902;48.158;8.634;2024-01-30T15:50:43;9.40;99.90
21481;DHT22;10902;48.158;8.634;2024-01-30T15:53:29;9.30;99.90
21481;DHT22;10902;48.158;8.634;2024-01-30T15:56:15;9.10;99.90
21481;DHT22;10902;48.158;8.634;2024-01-30T15:59:01;9.00;99.90
21481;DHT22;10902;48.158;8.634;2024-01-30T16:01:47;9.00;99.90
21481;DHT22;10902;48.158;8.634;2024-01-30T16:04:37;8.90;99.90
21481;DHT22;10902;48.158;8.634;2024-01-30T16:07:22;8.80;99.90
21481;DHT22;10902;48.158;8.634;2024-01-30T16:10:08;8.70;99.90
21481;DHT22;10902;48.158;8.634;2024-01-30T16:12:53;8.70;99.90
21481;DHT22;10902;48.158;8.634;2024-01-30T16:15:39;8.60;99.90
21481;DHT22;10902;48.158;8.634;2024-01-30T16:18:25;8.50;99.90
21481;DHT22;10902;48.158;8.634;2024-01-30T16:21:14;8.40;99.90
21481;DHT22;10902;48.158;8.634;2024-01-30T16:24:01;8.30;99.90
21481;DHT22;10902;48.158;8.634;2024-01-30T16:26:47;8.30;99.90
21481;DHT22;10902;48.158;8.634;2024-01-30T16:29:32;8.20;99.90
21481;DHT22;10902;48.158;8.634;2024-01-30T16:32:18;8.20;99.90
21481;DHT22;10902;48.158;8.634;2024-01-30T16:35:04;8.20;99.90
21481;DHT22;10902;48.158;8.634;2024-01-30T16:37:50;8.20;99.90
21481;DHT22;10902;48.158;8.634;2024-01-30T16:40:36;8.20;99.90
21481;DHT22;10902;48.158;8.634;2024-01-30T16:43:21;8.20;99.90
21481;DHT22;10902;48.158;8.634;2024-01-30T16:46:07;8.10;99.90
21481;DHT22;10902;48.158;8.634;2024-01-30T16:48:53;8.00;99.90
21481;DHT22;10902;48.158;8.634;2024-01-30T16:51:39;7.90;99.90
21481;DHT22;10902;48.158;8.634;2024-01-30T16:54:24;7.80;99.90
21481;DHT22;10902;48.158;8.634;2024-01-30T16:57:10;7.70;99.90
21481;DHT22;10902;48.158;8.634;2024-01-30T16:59:55;7.60;99.90
21481;DHT22;10902;48.158;8.634;2024-01-30T17:02:41;7.60;99.90
21481;DHT22;10902;48.158;8.634;2024-01-30T17:05:27;7.60;99.90
21481;DHT22;10902;48.158;8.634;2024-01-30T17:08:13;7.60;99.90
21481;DHT22;10902;48.158;8.634;2024-01-30T17:10:58;7.60;99.90
21481;DHT22;10902;48.158;8.634;2024-01-30T17:13:44;7.50;99.90
21481;DHT22;10902;48.158;8.634;2024-01-30T17:16:29;7.40;99.90
21481;DHT22;10902;48.158;8.634;2024-01-30T17:19:15;7.40;99.90
21481;DHT22;10902;48.158;8.634;2024-01-30T17:22:00;7.40;99.90
21481;DHT22;10902;48.158;8.634;2024-01-30T17:24:48;7.10;99.90
21481;DHT22;10902;48.158;8.634;2024-01-30T17:27:34;7.00;99.90
21481;DHT22;10902;48.158;8.634;2024-01-30T17:30:22;6.90;99.90
21481;DHT22;10902;48.158;8.634;2024-01-30T17:33:09;6.80;99.90
21481;DHT22;10902;48.158;8.634;2024-01-30T17:35:54;6.80;99.90
21481;DHT22;10902;48.158;8.634;2024-01-30T17:38:40;6.90;99.90
21481;DHT22;10902;48.158;8.634;2024-01-30T17:41:25;6.90;99.90
21481;DHT22;10902;48.158;8.634;2024-01-30T17:44:11;6.90;99.90